Time;durP1;ratioP1;P1;durP2;ratioP2;P2;SDS_P1;SDS_P2;PMS_P1;PMS_P2;Temp;Humidity;BMP_temperature;BMP_pressure;BME280_temperature;BME280_humidity;BME280_pressure;Samples;Min_cycle;Max_cycle;Signal;HPM_P1;HPM_P2
2024/01/15 00:00:13;;;;;;;46.42;17.60;;;;;-1.60;97483.00;;;;5072105;28;20052;-65
2024/01/15 00:02:39;;;;;;;43.28;17.02;;;;;-1.50;97479.00;;;;5071936;28;20098;-65
2024/01/15 00:05:06;;;;;;;46.40;18.38;;;;;-1.40;97481.00;;;;5072624;28;20078;-66
2024/01/15 00:07:33;;;;;;;42.50;17.85;;;;;-1.40;97488.00;;;;5071955;28;20043;-65
2024/01/15 00:10:00;;;;;;;48.17;16.75;;;;;-1.40;97481.00;;;;5070942;28;20106;-65
2024/01/15 00:12:27;;;;;;;46.50;18.05;;;;;-1.40;97487.00;;;;5071373;28;20115;-65
2024/01/15 00:14:54;;;;;;;43.95;16.65;;;;;-1.40;97473.00;;;;5071727;28;20400;-65
2024/01/15 00:17:20;;;;;;;37.65;15.90;;;;;-1.40;97476.00;;;;5072422;28;20075;-65
2024/01/15 00:19:47;;;;;;;43.22;18.20;;;;;-1.40;97465.00;;;;5071042;28;20040;-65
2024/01/15 00:22:14;;;;;;;43.90;17.25;;;;;-1.40;97465.00;;;;5072310;28;20041;-65
2024/01/15 00:24:40;;;;;;;44.75;17.65;;;;;-1.30;97454.00;;;;5071799;28;20064;-65
2024/01/15 00:27:07;;;;;;;44.80;17.98;;;;;-1.30;97447.00;;;;5054269;28;20084;-65
2024/01/15 00:29:34;;;;;;;54.10;17.67;;;;;-1.40;97451.00;;;;5070676;28;20056;-65
2024/01/15 00:32:01;;;;;;;43.55;15.90;;;;;-1.50;97446.00;;;;5072248;28;20124;-65
2024/01/15 00:34:27;;;;;;;43.05;16.52;;;;;-1.50;97440.00;;;;5071947;28;20041;-65
2024/01/15 00:36:54;;;;;;;38.47;15.98;;;;;-1.40;97441.00;;;;5072647;28;20040;-66
2024/01/15 00:39:21;;;;;;;39.78;16.88;;;;;-1.40;97453.00;;;;5071358;28;20501;-65
2024/01/15 00:41:48;;;;;;;40.67;15.70;;;;;-1.30;97436.00;;;;5072494;28;20502;-65
2024/01/15 00:44:14;;;;;;;38.47;15.98;;;;;-1.30;97443.00;;;;5071592;28;20075;-65
2024/01/15 00:46:45;;;;;;;37.90;15.35;;;;;-1.20;97444.00;;;;5072140;28;20048;-65
2024/01/15 00:49:13;;;;;;;41.22;15.93;;;;;-1.20;97438.00;;;;5072134;28;20040;-65
2024/01/15 00:51:40;;;;;;;44.42;15.57;;;;;-1.30;97436.00;;;;5070532;28;20041;-65
2024/01/15 00:54:07;;;;;;;40.42;15.38;;;;;-1.40;97428.00;;;;5070125;28;20053;-65
2024/01/15 00:56:34;;;;;;;37.08;15.82;;;;;-1.40;97435.00;;;;5070900;28;20048;-65
2024/01/15 00:59:03;;;;;;;40.15;15.07;;;;;-1.30;97431.00;;;;5070715;28;20053;-65
2024/01/15 01:01:30;;;;;;;36.22;15.38;;;;;-1.20;97437.00;;;;5071888;28;20493;-65
2024/01/15 01:03:57;;;;;;;32.63;14.80;;;;;-1.20;97435.00;;;;5071378;28;20048;-65
2024/01/15 01:06:24;;;;;;;33.83;13.85;;;;;-1.20;97433.00;;;;5071764;28;20405;-64
2024/01/15 01:08:54;;;;;;;36.88;14.65;;;;;-1.10;97440.00;;;;5070824;28;20040;-63
2024/01/15 01:11:20;;;;;;;39.80;15.75;;;;;-1.00;97434.00;;;;5071666;28;20370;-65
2024/01/15 01:13:47;;;;;;;33.60;14.57;;;;;-1.00;97439.00;;;;5070017;28;20109;-65
2024/01/15 01:16:13;;;;;;;34.88;13.35;;;;;-1.00;97436.00;;;;5071716;28;20078;-65
2024/01/15 01:18:40;;;;;;;41.05;16.83;;;;;-1.00;97437.00;;;;5073614;28;20457;-64
2024/01/15 01:21:07;;;;;;;40.78;15.60;;;;;-1.10;97445.00;;;;5074260;28;20052;-65
2024/01/15 01:23:34;;;;;;;34.40;14.70;;;;;-1.00;97444.00;;;;5074935;28;20036;-65
2024/01/15 01:26:00;;;;;;;33.25;14.70;;;;;-1.10;97443.00;;;;5075587;28;20444;-63
2024/01/15 01:28:28;;;;;;;38.00;15.32;;;;;-1.10;97432.00;;;;5075513;28;20402;-65
2024/01/15 01:30:54;;;;;;;30.98;13.40;;;;;-1.00;97444.00;;;;5075424;28;20032;-64
2024/01/15 01:33:21;;;;;;;38.58;13.00;;;;;-1.00;97439.00;;;;5075361;28;20100;-65
2024/01/15 01:35:48;;;;;;;33.50;13.52;;;;;-0.90;97438.00;;;;5075132;28;20040;-65
2024/01/15 01:38:15;;;;;;;34.63;14.10;;;;;-0.90;97437.00;;;;5073994;28;20079;-64
2024/01/15 01:40:42;;;;;;;35.17;14.07;;;;;-0.90;97446.00;;;;5074058;28;20545;-65
2024/01/15 01:43:09;;;;;;;37.03;14.52;;;;;-0.90;97439.00;;;;5075496;28;20056;-65
2024/01/15 01:45:36;;;;;;;30.77;13.27;;;;;-1.00;97433.00;;;;5074562;28;20123;-65
2024/01/15 01:48:04;;;;;;;32.38;13.25;;;;;-1.00;97449.00;;;;5074932;28;20044;-65
2024/01/15 01:50:31;;;;;;;37.58;14.10;;;;;-1.00;97448.00;;;;5073786;28;20047;-65
2024/01/15 01:52:59;;;;;;;34.78;13.18;;;;;-1.00;97435.00;;;;5073716;28;20063;-65
2024/01/15 01:55:28;;;;;;;31.67;14.43;;;;;-0.90;97441.00;;;;5074570;28;20041;-65
2024/01/15 01:57:55;;;;;;;33.28;13.40;;;;;-0.90;97430.00;;;;5074886;28;20041;-65
2024/01/15 02:00:22;;;;;;;38.97;14.68;;;;;-0.90;97440.00;;;;5073837;28;20040;-65
2024/01/15 02:02:49;;;;;;;32.38;13.23;;;;;-1.00;97418.00;;;;5073626;28;20086;-66
2024/01/15 02:05:19;;;;;;;33.50;12.90;;;;;-1.00;97425.00;;;;5056663;28;20079;-65
2024/01/15 02:07:46;;;;;;;35.83;13.30;;;;;-1.10;97420.00;;;;5074830;28;20044;-65
2024/01/15 02:10:13;;;;;;;40.17;14.95;;;;;-1.00;97415.00;;;;5073754;28;20083;-65
2024/01/15 02:12:40;;;;;;;32.92;13.18;;;;;-1.10;97411.00;;;;5074705;28;20051;-65
2024/01/15 02:15:07;;;;;;;33.58;13.85;;;;;-1.20;97406.00;;;;5073031;28;20044;-63
2024/01/15 02:17:34;;;;;;;34.20;13.88;;;;;-1.20;97411.00;;;;5073433;28;20052;-63
2024/01/15 02:20:01;;;;;;;34.20;14.10;;;;;-1.10;97400.00;;;;5074558;28;20044;-64
2024/01/15 02:22:27;;;;;;;35.90;13.57;;;;;-1.20;97407.00;;;;5073377;28;20559;-64
2024/01/15 02:24:54;;;;;;;38.65;13.98;;;;;-1.20;97397.00;;;;5074208;28;20523;-63
2024/01/15 02:27:21;;;;;;;35.80;14.82;;;;;-1.20;97399.00;;;;5073230;28;20143;-64
2024/01/15 02:29:49;;;;;;;37.97;14.73;;;;;-1.10;97406.00;;;;5073419;28;20049;-64
2024/01/15 02:32:15;;;;;;;38.33;14.85;;;;;-1.10;97396.00;;;;5073312;28;20119;-63
2024/01/15 02:34:42;;;;;;;40.08;15.25;;;;;-1.20;97399.00;;;;5072727;28;20058;-64
2024/01/15 02:37:09;;;;;;;41.40;16.08;;;;;-1.10;97400.00;;;;5073362;28;20040;-63
2024/01/15 02:39:35;;;;;;;39.22;15.82;;;;;-1.20;97395.00;;;;5073123;28;20101;-64
2024/01/15 02:42:02;;;;;;;41.70;16.27;;;;;-1.20;97392.00;;;;5074291;28;20041;-64
2024/01/15 02:44:28;;;;;;;39.38;16.25;;;;;-1.10;97395.00;;;;5073564;28;20059;-64
2024/01/15 02:46:55;;;;;;;38.58;15.48;;;;;-1.10;97394.00;;;;5074505;28;20072;-63
2024/01/15 02:49:21;;;;;;;46.55;17.38;;;;;-1.10;97393.00;;;;5074023;28;20049;-64
2024/01/15 02:51:48;;;;;;;40.08;15.43;;;;;-1.10;97390.00;;;;5074118;28;20051;-63
2024/01/15 02:54:15;;;;;;;37.72;16.13;;;;;-1.00;97383.00;;;;5073038;28;20056;-64
2024/01/15 02:56:41;;;;;;;41.55;16.20;;;;;-1.10;97399.00;;;;5072821;28;20044;-64
2024/01/15 02:59:08;;;;;;;43.58;16.77;;;;;-1.10;97402.00;;;;5074047;28;20063;-65
2024/01/15 03:01:35;;;;;;;38.92;16.10;;;;;-1.10;97392.00;;;;5074196;28;20120;-64
2024/01/15 03:04:01;;;;;;;39.75;15.60;;;;;-1.10;97390.00;;;;5073416;28;20044;-64
2024/01/15 03:06:28;;;;;;;41.33;15.73;;;;;-1.10;97382.00;;;;5079202;28;20048;-64
2024/01/15 03:08:54;;;;;;;44.38;16.92;;;;;-1.00;97376.00;;;;5077264;28;20128;-64
2024/01/15 03:11:21;;;;;;;43.70;16.45;;;;;-1.00;97388.00;;;;5073994;28;20048;-64
2024/01/15 03:13:47;;;;;;;38.10;16.10;;;;;-1.10;97389.00;;;;5072118;28;20132;-63
2024/01/15 03:16:14;;;;;;;36.40;15.57;;;;;-1.10;97392.00;;;;5072185;28;20474;-65
2024/01/15 03:18:40;;;;;;;38.67;15.25;;;;;-1.00;97385.00;;;;5072416;28;20048;-64
2024/01/15 03:21:07;;;;;;;37.53;14.82;;;;;-1.00;97377.00;;;;5073562;28;20075;-65
2024/01/15 03:23:34;;;;;;;36.90;15.60;;;;;-1.00;97380.00;;;;5071551;28;20048;-64
2024/01/15 03:26:00;;;;;;;41.95;16.00;;;;;-1.10;97374.00;;;;5073096;28;20123;-64
2024/01/15 03:28:27;;;;;;;42.75;16.67;;;;;-1.10;97382.00;;;;5055568;28;20569;-65
2024/01/15 03:30:54;;;;;;;45.25;17.48;;;;;-1.00;97369.00;;;;5072080;28;20058;-64
2024/01/15 03:33:21;;;;;;;43.78;17.40;;;;;-1.00;97370.00;;;;5071624;28;20083;-64
2024/01/15 03:35:48;;;;;;;38.83;16.75;;;;;-0.90;97371.00;;;;5072948;28;20185;-64
2024/01/15 03:38:14;;;;;;;45.97;15.88;;;;;-0.90;97372.00;;;;5071840;28;20123;-65
2024/01/15 03:40:41;;;;;;;42.90;15.90;;;;;-0.80;97374.00;;;;5072935;28;20047;-65
2024/01/15 03:43:08;;;;;;;40.17;16.63;;;;;-0.80;97367.00;;;;5072071;28;20125;-65
2024/01/15 03:45:34;;;;;;;45.50;17.85;;;;;-0.80;97350.00;;;;5072946;28;20129;-64
2024/01/15 03:48:01;;;;;;;38.30;15.63;;;;;-0.70;97353.00;;;;5073072;28;20054;-64
2024/01/15 03:50:28;;;;;;;37.65;15.93;;;;;-0.70;97351.00;;;;5073121;28;20043;-65
2024/01/15 03:52:54;;;;;;;40.55;15.73;;;;;-0.70;97348.00;;;;5071610;28;20405;-63
2024/01/15 03:55:21;;;;;;;40.85;16.20;;;;;-0.70;97360.00;;;;5072295;28;20466;-64
2024/01/15 03:57:47;;;;;;;42.17;15.20;;;;;-0.70;97363.00;;;;5071670;28;20127;-65
2024/01/15 04:00:17;;;;;;;38.17;14.82;;;;;-0.60;97347.00;;;;5072684;28;20048;-65
2024/01/15 04:02:44;;;;;;;34.58;14.05;;;;;-0.70;97349.00;;;;5054930;28;20052;-65
2024/01/15 04:05:11;;;;;;;33.90;14.45;;;;;-0.70;97350.00;;;;5070791;28;20044;-65
2024/01/15 04:07:37;;;;;;;31.42;13.15;;;;;-0.70;97351.00;;;;5072511;28;20090;-65
2024/01/15 04:10:04;;;;;;;33.35;13.88;;;;;-0.60;97337.00;;;;5072811;28;20047;-65
2024/01/15 04:12:31;;;;;;;31.73;13.45;;;;;-0.60;97342.00;;;;5054967;28;20281;-65
2024/01/15 04:14:57;;;;;;;28.23;13.07;;;;;-0.70;97338.00;;;;5070884;28;20558;-64
2024/01/15 04:17:24;;;;;;;33.40;13.98;;;;;-0.70;97331.00;;;;5072756;28;20055;-65
2024/01/15 04:19:51;;;;;;;31.95;13.88;;;;;-0.60;97337.00;;;;5072614;28;20131;-65
2024/01/15 04:22:17;;;;;;;32.85;14.63;;;;;-0.60;97336.00;;;;5071188;28;20068;-64
2024/01/15 04:24:44;;;;;;;30.30;12.95;;;;;-0.60;97320.00;;;;5070530;28;20455;-65
2024/01/15 04:27:11;;;;;;;31.50;13.20;;;;;-0.60;97308.00;;;;5072472;28;20041;-65
2024/01/15 04:29:39;;;;;;;35.78;13.73;;;;;-0.50;97307.00;;;;5072728;28;20056;-64
2024/01/15 04:32:07;;;;;;;26.67;13.35;;;;;-0.60;97309.00;;;;5072417;28;20555;-64
2024/01/15 04:34:33;;;;;;;26.85;12.80;;;;;-0.50;97314.00;;;;5072447;28;20049;-64
2024/01/15 04:37:00;;;;;;;28.55;13.07;;;;;-0.40;97312.00;;;;5073680;28;20519;-64
2024/01/15 04:39:27;;;;;;;31.00;13.02;;;;;-0.40;97306.00;;;;5073064;28;20132;-65
2024/01/15 04:41:54;;;;;;;28.23;12.77;;;;;-0.40;97304.00;;;;5055104;28;20048;-65
2024/01/15 04:44:20;;;;;;;30.17;13.40;;;;;-0.40;97300.00;;;;5079755;28;20064;-64
2024/01/15 04:46:47;;;;;;;30.90;13.68;;;;;-0.40;97305.00;;;;5086302;28;20104;-64
2024/01/15 04:49:14;;;;;;;34.97;12.63;;;;;-0.40;97308.00;;;;5091884;28;20154;-64
2024/01/15 04:51:41;;;;;;;30.30;12.65;;;;;-0.40;97287.00;;;;5090822;28;20045;-64
2024/01/15 04:54:07;;;;;;;29.75;13.80;;;;;-0.20;97286.00;;;;5074466;28;20110;-64
2024/01/15 04:56:34;;;;;;;29.58;12.68;;;;;-0.20;97300.00;;;;5092750;28;20049;-64
2024/01/15 04:59:01;;;;;;;32.78;13.02;;;;;-0.30;97293.00;;;;5091199;28;20080;-64
2024/01/15 05:01:33;;;;;;;33.47;14.25;;;;;-0.20;97302.00;;;;5075573;28;20064;-65
2024/01/15 05:04:00;;;;;;;33.70;13.90;;;;;-0.10;97317.00;;;;5091962;28;20032;-64
2024/01/15 05:06:27;;;;;;;31.80;13.57;;;;;-0.10;97310.00;;;;5094509;28;20038;-64
2024/01/15 05:08:54;;;;;;;31.58;13.73;;;;;0.00;97300.00;;;;5091659;28;20060;-65
2024/01/15 05:11:20;;;;;;;30.98;13.90;;;;;0.00;97308.00;;;;5090205;28;20112;-66
2024/01/15 05:13:47;;;;;;;33.88;15.55;;;;;0.10;97308.00;;;;5092648;28;20049;-66
2024/01/15 05:16:13;;;;;;;37.05;13.93;;;;;0.10;97313.00;;;;5092838;28;20221;-65
2024/01/15 05:18:40;;;;;;;29.45;12.77;;;;;0.10;97312.00;;;;5093890;28;20045;-64
2024/01/15 05:21:07;;;;;;;34.92;15.18;;;;;0.10;97299.00;;;;5075133;28;20135;-65
2024/01/15 05:23:34;;;;;;;32.15;14.45;;;;;0.10;97302.00;;;;5070003;28;20044;-65
2024/01/15 05:26:00;;;;;;;31.00;13.75;;;;;0.20;97295.00;;;;5071697;28;20493;-64
2024/01/15 05:28:27;;;;;;;32.40;15.27;;;;;0.10;97298.00;;;;5070400;28;20076;-65
2024/01/15 05:30:55;;;;;;;34.72;14.80;;;;;0.10;97286.00;;;;5070278;28;20048;-64
2024/01/15 05:33:23;;;;;;;35.55;15.02;;;;;0.10;97280.00;;;;5071223;28;20417;-66
2024/01/15 05:35:50;;;;;;;36.13;15.65;;;;;0.10;97278.00;;;;5071888;28;20044;-65
2024/01/15 05:38:17;;;;;;;36.67;15.32;;;;;0.10;97284.00;;;;5071737;28;20386;-64
2024/01/15 05:40:43;;;;;;;36.80;16.80;;;;;0.10;97279.00;;;;5071503;28;20448;-65
2024/01/15 05:43:10;;;;;;;35.60;15.48;;;;;0.20;97281.00;;;;5071567;28;20051;-64
2024/01/15 05:45:38;;;;;;;34.95;16.13;;;;;0.10;97282.00;;;;5069804;28;20048;-64
2024/01/15 05:48:05;;;;;;;34.55;15.38;;;;;0.10;97279.00;;;;5071912;28;20123;-64
2024/01/15 05:50:32;;;;;;;34.20;15.80;;;;;0.10;97281.00;;;;5071776;28;20485;-65
2024/01/15 05:52:58;;;;;;;39.83;15.82;;;;;0.10;97273.00;;;;5071619;28;20037;-64
2024/01/15 05:55:25;;;;;;;29.05;13.48;;;;;0.00;97271.00;;;;5071065;28;20044;-65
2024/01/15 05:57:51;;;;;;;38.95;15.55;;;;;0.00;97265.00;;;;5070317;28;20405;-64
2024/01/15 06:00:18;;;;;;;32.10;14.88;;;;;0.00;97265.00;;;;5071663;28;20101;-64
2024/01/15 06:02:45;;;;;;;37.92;15.32;;;;;0.00;97252.00;;;;5070439;28;20044;-65
2024/01/15 06:05:15;;;;;;;37.42;16.17;;;;;-0.10;97248.00;;;;5072541;28;20426;-65
2024/01/15 06:07:41;;;;;;;38.67;15.25;;;;;0.00;97243.00;;;;5074826;28;20040;-65
2024/01/15 06:10:08;;;;;;;33.97;15.15;;;;;-0.10;97254.00;;;;5075650;28;20101;-65
2024/01/15 06:12:35;;;;;;;36.67;15.57;;;;;-0.10;97248.00;;;;5075469;28;20094;-65
2024/01/15 06:15:02;;;;;;;33.05;15.00;;;;;-0.10;97248.00;;;;5075536;28;20037;-65
2024/01/15 06:17:29;;;;;;;34.53;15.73;;;;;-0.10;97243.00;;;;5074738;28;20048;-65
2024/01/15 06:19:56;;;;;;;36.15;16.08;;;;;-0.20;97240.00;;;;5074969;28;20041;-65
2024/01/15 06:22:23;;;;;;;34.05;15.98;;;;;-0.10;97243.00;;;;5076378;28;20045;-65
2024/01/15 06:24:50;;;;;;;32.65;14.93;;;;;-0.10;97236.00;;;;5075711;28;20079;-65
2024/01/15 06:27:17;;;;;;;33.00;16.67;;;;;-0.10;97240.00;;;;5077109;28;20040;-66
2024/01/15 06:29:47;;;;;;;32.58;15.60;;;;;-0.10;97241.00;;;;5075858;28;20049;-66
2024/01/15 06:32:16;;;;;;;38.58;16.27;;;;;0.00;97236.00;;;;5076011;28;20049;-66
2024/01/15 06:34:43;;;;;;;37.15;16.52;;;;;0.00;97235.00;;;;5076242;28;20402;-65
2024/01/15 06:37:10;;;;;;;34.78;16.25;;;;;0.00;97249.00;;;;5078151;28;20044;-65
2024/01/15 06:39:36;;;;;;;35.28;15.85;;;;;0.00;97261.00;;;;5061253;28;20057;-65
2024/01/15 06:42:03;;;;;;;32.08;15.48;;;;;0.00;97258.00;;;;5077056;28;20106;-66
2024/01/15 06:44:30;;;;;;;34.85;15.32;;;;;0.00;97252.00;;;;5075327;28;20040;-65
2024/01/15 06:47:00;;;;;;;33.13;15.77;;;;;0.00;97245.00;;;;5076263;28;20116;-65
2024/01/15 06:49:27;;;;;;;34.97;16.05;;;;;0.00;97243.00;;;;5076622;28;20128;-66
2024/01/15 06:51:53;;;;;;;37.17;16.35;;;;;0.00;97243.00;;;;5078670;28;20140;-65
2024/01/15 06:54:20;;;;;;;29.73;14.80;;;;;0.00;97240.00;;;;5074194;28;20048;-65
2024/01/15 06:56:47;;;;;;;30.83;15.40;;;;;0.00;97246.00;;;;5074444;28;20063;-65
2024/01/15 06:59:13;;;;;;;31.23;15.35;;;;;0.10;97257.00;;;;5074790;28;20703;-65
2024/01/15 07:01:45;;;;;;;32.10;14.77;;;;;0.20;97255.00;;;;5075008;28;20135;-65
2024/01/15 07:04:12;;;;;;;31.58;16.60;;;;;0.10;97254.00;;;;5073821;28;20143;-65
2024/01/15 07:06:38;;;;;;;31.85;15.82;;;;;0.10;97254.00;;;;5074080;28;20078;-65
2024/01/15 07:09:06;;;;;;;32.17;15.00;;;;;0.10;97237.00;;;;5073745;28;20082;-66
2024/01/15 07:11:32;;;;;;;31.08;15.15;;;;;0.10;97234.00;;;;5072629;28;20048;-65
2024/01/15 07:13:59;;;;;;;33.75;15.27;;;;;0.10;97231.00;;;;5071860;28;20090;-66
2024/01/15 07:16:25;;;;;;;31.23;15.20;;;;;0.20;97236.00;;;;5072038;28;20511;-66
2024/01/15 07:19:03;;;;;;;33.67;15.00;;;;;0.20;97223.00;;;;5073394;28;20055;-66
2024/01/15 07:21:30;;;;;;;35.75;17.20;;;;;0.10;97229.00;;;;5073565;28;20051;-66
2024/01/15 07:23:57;;;;;;;32.15;15.32;;;;;0.20;97237.00;;;;5071726;28;20090;-66
2024/01/15 07:26:23;;;;;;;31.52;15.43;;;;;0.30;97230.00;;;;5073386;28;20086;-65
2024/01/15 07:28:50;;;;;;;28.33;15.02;;;;;0.20;97231.00;;;;5073422;28;20418;-65
2024/01/15 07:31:19;;;;;;;32.88;16.40;;;;;0.10;97238.00;;;;5072219;28;20048;-66
2024/01/15 07:33:46;;;;;;;33.25;16.25;;;;;0.10;97240.00;;;;5071343;28;20512;-65
2024/01/15 07:36:14;;;;;;;30.92;14.55;;;;;0.20;97244.00;;;;5073136;28;20041;-65
2024/01/15 07:38:41;;;;;;;29.85;15.70;;;;;0.10;97240.00;;;;5073475;28;20090;-64
2024/01/15 07:41:08;;;;;;;32.60;15.80;;;;;0.10;97235.00;;;;5071907;28;20504;-64
2024/01/15 07:43:34;;;;;;;28.80;14.80;;;;;0.10;97249.00;;;;5071573;28;20045;-64
2024/01/15 07:46:02;;;;;;;35.53;16.52;;;;;0.10;97241.00;;;;5073422;28;20137;-64
2024/01/15 07:48:29;;;;;;;31.08;14.20;;;;;0.20;97238.00;;;;5072368;28;20114;-66
2024/01/15 07:50:55;;;;;;;32.83;15.52;;;;;0.20;97238.00;;;;5072406;28;20052;-65
2024/01/15 07:53:22;;;;;;;28.88;14.15;;;;;0.30;97235.00;;;;5071405;28;20090;-65
2024/01/15 07:55:49;;;;;;;30.95;14.77;;;;;0.30;97223.00;;;;5072862;28;20064;-65
2024/01/15 07:58:15;;;;;;;30.88;15.18;;;;;0.30;97220.00;;;;5072811;28;20509;-65
2024/01/15 08:00:43;;;;;;;42.90;17.30;;;;;0.30;97234.00;;;;5072826;28;20512;-65
2024/01/15 08:03:11;;;;;;;26.40;13.50;;;;;0.30;97229.00;;;;5072699;28;20036;-65
2024/01/15 08:05:38;;;;;;;27.77;14.80;;;;;0.30;97230.00;;;;5054911;28;20044;-65
2024/01/15 08:08:05;;;;;;;30.15;14.52;;;;;0.30;97243.00;;;;5073748;28;20040;-65
2024/01/15 08:10:32;;;;;;;27.88;14.13;;;;;0.30;97238.00;;;;5072961;28;20398;-65
2024/01/15 08:12:58;;;;;;;30.58;14.23;;;;;0.30;97237.00;;;;5072115;28;20143;-65
2024/01/15 08:15:25;;;;;;;26.05;14.15;;;;;0.30;97254.00;;;;5072084;28;20040;-65
2024/01/15 08:17:56;;;;;;;30.63;15.70;;;;;0.20;97236.00;;;;5073728;28;20055;-65
2024/01/15 08:20:23;;;;;;;29.48;14.77;;;;;0.30;97237.00;;;;5072865;28;20055;-65
2024/01/15 08:22:50;;;;;;;30.95;15.30;;;;;0.30;97236.00;;;;5073776;28;20497;-65
2024/01/15 08:25:17;;;;;;;34.15;16.23;;;;;0.40;97240.00;;;;5070730;28;20493;-65
2024/01/15 08:27:43;;;;;;;32.15;15.57;;;;;0.50;97231.00;;;;5071672;28;20079;-65
2024/01/15 08:30:11;;;;;;;33.70;15.68;;;;;0.40;97224.00;;;;5072026;28;20080;-65
2024/01/15 08:32:42;;;;;;;32.45;15.77;;;;;0.40;97239.00;;;;5072441;28;20033;-65
2024/01/15 08:35:09;;;;;;;28.60;15.43;;;;;0.40;97232.00;;;;5070624;28;20048;-65
2024/01/15 08:37:37;;;;;;;32.70;15.05;;;;;0.40;97229.00;;;;5072170;28;20489;-65
2024/01/15 08:40:04;;;;;;;31.98;15.70;;;;;0.40;97235.00;;;;5072109;28;20044;-66
2024/01/15 08:42:30;;;;;;;28.58;14.75;;;;;0.40;97236.00;;;;5072047;28;20094;-65
2024/01/15 08:44:57;;;;;;;29.80;14.38;;;;;0.40;97234.00;;;;5071423;28;20489;-65
2024/01/15 08:47:25;;;;;;;31.65;16.15;;;;;0.40;97230.00;;;;5071938;28;20502;-66
2024/01/15 08:49:52;;;;;;;30.48;14.68;;;;;0.40;97236.00;;;;5054017;28;20378;-65
2024/01/15 08:52:20;;;;;;;32.92;15.60;;;;;0.40;97232.00;;;;5071812;28;20040;-65
2024/01/15 08:54:46;;;;;;;34.28;16.40;;;;;0.50;97239.00;;;;5071323;28;20391;-65
2024/01/15 08:57:13;;;;;;;34.20;16.95;;;;;0.50;97246.00;;;;5072181;28;20041;-65
2024/01/15 08:59:41;;;;;;;32.38;15.93;;;;;0.60;97235.00;;;;5070469;28;20067;-65
2024/01/15 09:02:08;;;;;;;34.63;15.95;;;;;0.60;97244.00;;;;5071870;28;20075;-65
2024/01/15 09:04:34;;;;;;;29.50;13.98;;;;;0.70;97238.00;;;;5071378;28;20502;-65
2024/01/15 09:07:01;;;;;;;31.10;15.35;;;;;0.70;97226.00;;;;5071959;28;20486;-65
2024/01/15 09:09:28;;;;;;;29.77;13.90;;;;;0.70;97237.00;;;;5070795;28;20155;-65
2024/01/15 09:11:55;;;;;;;27.17;14.18;;;;;0.70;97241.00;;;;5070732;28;20051;-65
2024/01/15 09:14:24;;;;;;;26.10;12.90;;;;;0.70;97231.00;;;;5071356;28;20127;-65
2024/01/15 09:17:04;;;;;;;27.17;13.85;;;;;0.80;97226.00;;;;5071097;28;20090;-65
2024/01/15 09:19:30;;;;;;;32.83;16.02;;;;;0.80;97232.00;;;;5072053;28;20468;-65
2024/01/15 09:21:57;;;;;;;34.13;15.02;;;;;0.80;97230.00;;;;5070509;28;20076;-65
2024/01/15 09:24:24;;;;;;;24.90;14.30;;;;;0.70;97220.00;;;;5071057;28;20425;-65
2024/01/15 09:26:54;;;;;;;30.80;15.25;;;;;0.80;97219.00;;;;5071697;28;20076;-65
2024/01/15 09:29:21;;;;;;;32.10;15.73;;;;;0.80;97228.00;;;;5071702;28;20044;-65
2024/01/15 09:31:47;;;;;;;27.23;14.13;;;;;0.80;97216.00;;;;5071804;28;20557;-65
2024/01/15 09:34:14;;;;;;;26.02;13.52;;;;;0.90;97220.00;;;;5071112;28;20045;-65
2024/01/15 09:36:42;;;;;;;26.35;13.55;;;;;0.90;97229.00;;;;5071851;28;20068;-65
2024/01/15 09:39:10;;;;;;;27.67;14.80;;;;;1.00;97224.00;;;;5071553;28;20041;-65
2024/01/15 09:41:38;;;;;;;27.55;14.27;;;;;1.10;97222.00;;;;5075444;28;20040;-65
2024/01/15 09:44:05;;;;;;;26.27;12.88;;;;;1.20;97222.00;;;;5074749;28;20120;-65
2024/01/15 09:46:32;;;;;;;27.65;14.57;;;;;1.30;97230.00;;;;5074293;28;20127;-65
2024/01/15 09:48:59;;;;;;;30.77;15.38;;;;;1.30;97230.00;;;;5073772;28;20048;-65
2024/01/15 09:51:26;;;;;;;28.98;14.90;;;;;1.30;97221.00;;;;5074883;28;20448;-65
2024/01/15 09:53:55;;;;;;;27.20;13.27;;;;;1.30;97222.00;;;;5072892;28;20135;-66
2024/01/15 09:56:21;;;;;;;25.58;14.82;;;;;1.30;97217.00;;;;5057119;28;20044;-65
2024/01/15 09:58:48;;;;;;;27.20;14.38;;;;;1.40;97216.00;;;;5073707;28;20072;-65
2024/01/15 10:01:17;;;;;;;27.10;15.48;;;;;1.50;97212.00;;;;5074748;28;20051;-65
2024/01/15 10:03:44;;;;;;;27.05;13.88;;;;;1.50;97216.00;;;;5074197;28;20052;-65
2024/01/15 10:06:15;;;;;;;24.40;12.55;;;;;1.50;97220.00;;;;5073134;28;20060;-65
2024/01/15 10:08:49;;;;;;;23.83;12.35;;;;;1.40;97211.00;;;;5074041;28;20071;-65
2024/01/15 10:11:16;;;;;;;24.65;13.75;;;;;1.40;97211.00;;;;5074610;28;20037;-65
2024/01/15 10:13:52;;;;;;;23.77;12.85;;;;;1.50;97206.00;;;;5072746;28;20072;-65
2024/01/15 10:16:23;;;;;;;25.73;14.20;;;;;1.50;97205.00;;;;5073543;28;20055;-64
2024/01/15 10:18:49;;;;;;;26.73;14.07;;;;;1.50;97207.00;;;;5073602;28;20076;-64
2024/01/15 10:21:16;;;;;;;22.33;12.52;;;;;1.50;97207.00;;;;5073563;28;20049;-65
2024/01/15 10:23:44;;;;;;;26.35;14.60;;;;;1.60;97204.00;;;;5072531;28;20059;-64
2024/01/15 10:26:11;;;;;;;24.80;13.40;;;;;1.60;97197.00;;;;5074068;28;20131;-65
2024/01/15 10:28:42;;;;;;;30.02;15.82;;;;;1.70;97197.00;;;;5073125;28;20048;-65
2024/01/15 10:31:09;;;;;;;36.30;19.05;;;;;1.70;97195.00;;;;5073080;28;20041;-65
2024/01/15 10:33:36;;;;;;;33.17;16.10;;;;;1.70;97187.00;;;;5072372;28;20068;-65
2024/01/15 10:36:09;;;;;;;31.10;16.52;;;;;1.70;97191.00;;;;5073002;28;20067;-65
2024/01/15 10:38:36;;;;;;;27.60;15.70;;;;;1.70;97184.00;;;;5074182;28;20040;-65
2024/01/15 10:41:03;;;;;;;30.40;16.02;;;;;1.80;97178.00;;;;5056364;28;20102;-65
2024/01/15 10:43:30;;;;;;;32.90;16.17;;;;;1.80;97178.00;;;;5072539;28;20041;-66
2024/01/15 10:45:57;;;;;;;31.60;16.15;;;;;1.80;97170.00;;;;5072926;28;20044;-65
2024/01/15 10:48:24;;;;;;;29.33;18.33;;;;;1.80;97171.00;;;;5074280;28;20111;-65
2024/01/15 10:50:50;;;;;;;25.70;14.32;;;;;1.80;97167.00;;;;5073120;28;20056;-66
2024/01/15 10:53:17;;;;;;;20.33;12.32;;;;;1.90;97182.00;;;;5073825;28;20040;-65
2024/01/15 10:55:48;;;;;;;19.55;11.50;;;;;1.90;97184.00;;;;5073248;28;20044;-65
2024/01/15 10:58:15;;;;;;;22.23;11.65;;;;;1.80;97174.00;;;;5073725;28;20139;-64
2024/01/15 11:00:43;;;;;;;23.40;12.45;;;;;1.70;97174.00;;;;5072453;28;20106;-65
2024/01/15 11:03:10;;;;;;;23.05;12.07;;;;;1.70;97166.00;;;;5055904;28;20041;-65
2024/01/15 11:05:44;;;;;;;26.15;13.80;;;;;1.80;97161.00;;;;5071955;28;20068;-65
2024/01/15 11:08:11;;;;;;;25.10;12.57;;;;;1.80;97161.00;;;;5072398;28;20044;-65
2024/01/15 11:10:39;;;;;;;22.65;11.60;;;;;1.80;97156.00;;;;5073388;28;20051;-65
2024/01/15 11:13:28;;;;;;;24.30;12.07;;;;;1.90;97155.00;;;;5073396;28;20075;-65
2024/01/15 11:15:57;;;;;;;28.60;13.07;;;;;1.90;97157.00;;;;5066391;28;20057;-65
2024/01/15 11:18:24;;;;;;;22.83;12.68;;;;;2.00;97159.00;;;;5071756;28;20485;-66
2024/01/15 11:21:15;;;;;;;23.30;12.77;;;;;2.00;97159.00;;;;5071851;28;20409;-67
2024/01/15 11:23:46;;;;;;;24.15;12.05;;;;;2.00;97160.00;;;;5072841;28;20055;-65
2024/01/15 11:26:40;;;;;;;20.30;10.60;;;;;1.90;97162.00;;;;5071804;28;20424;-64
2024/01/15 11:29:27;;;;;;;18.75;11.15;;;;;1.80;97157.00;;;;5073525;28;20413;-65
2024/01/15 11:32:01;;;;;;;20.38;11.00;;;;;1.90;97147.00;;;;5072256;28;20144;-65
2024/01/15 11:34:58;;;;;;;21.30;11.88;;;;;2.00;97157.00;;;;5072452;28;20070;-66
2024/01/15 11:37:27;;;;;;;23.35;12.55;;;;;2.10;97154.00;;;;5073095;28;20048;-65
2024/01/15 11:39:55;;;;;;;18.92;10.95;;;;;2.20;97164.00;;;;5054963;28;20056;-65
2024/01/15 11:42:22;;;;;;;17.00;10.40;;;;;2.30;97157.00;;;;5071487;28;20052;-66
2024/01/15 11:44:50;;;;;;;16.85;10.27;;;;;2.30;97163.00;;;;5072379;28;20158;-66
2024/01/15 11:47:44;;;;;;;16.77;9.43;;;;;2.30;97170.00;;;;5055237;28;20051;-65
2024/01/15 11:50:12;;;;;;;17.48;9.52;;;;;2.30;97175.00;;;;5072691;28;20401;-65
2024/01/15 11:52:39;;;;;;;18.50;9.98;;;;;2.20;97183.00;;;;5072891;28;20397;-65
2024/01/15 11:55:18;;;;;;;16.13;9.02;;;;;2.20;97191.00;;;;5071928;28;20037;-66
2024/01/15 11:57:49;;;;;;;14.70;9.13;;;;;2.10;97199.00;;;;5072670;28;20049;-65
2024/01/15 12:00:17;;;;;;;18.02;10.48;;;;;2.00;97205.00;;;;5072761;28;20161;-66
2024/01/15 12:02:45;;;;;;;15.45;9.23;;;;;1.90;97212.00;;;;5072630;28;20051;-66
2024/01/15 12:05:17;;;;;;;19.75;10.13;;;;;1.90;97215.00;;;;5070719;28;20064;-66